Terminal Aerodrome Forecast
Issued by NWS

Current Version | Previous Version | Text Only | Print | Product List | Glossary Off
Versions: 1 2 3 4 5 6 7 8 9 10 11 12 13 14 15 16 17 18 19 20 21

188
FTUS41 KILN 031644 AAB
TAFLCK
TAF AMD
KLCK 031644Z 0317/0412 00000KT P6SM BKN022 OVC035
     FM032300 00000KT P6SM BKN035
     FM041100 VRB03KT P6SM FEW040 BKN150=

USA.gov is the U.S. government's official web portal to all federal, state and local government web resources and services.